Harbert, Michigan
Current Conditions -  °F | °C
As of 2:15 PM on Saturday 20 Dec 2014 (Local Time) from KMGC Reporting Station
Overcast Overcast  
Wind Chill: -3°   Ceiling: 7000
Heat Index:   Visibility: 10mi
Dew Point: -6°   Wind: 5mph
Humidity: 64%   Direction: 220°SW
Pressure: 30.25"   Gusts: NA
Location:  41.87°N, 86.63°W
Report Text: KMGC 201915Z AUTO 22004KT 10SM SCT035 OVC070 00/M06 A3025 RMK AO2
Loading
Personal Weather Stations






























Interactive Weather Map New forecast layout! Learn more

10-Day Weather Forecast

Advertisements
Track Severe Weather on mobile